sensor_id;sensor_type;location;lat;lon;timestamp;P1;durP1;ratioP1;P2;durP2;ratioP2
38123;SDS011;23934;47.998;9.832;2022-11-13T00:02:02;33.15;;;6.43;;
38123;SDS011;23934;47.998;9.832;2022-11-13T00:04:28;13.30;;;5.05;;
38123;SDS011;23934;47.998;9.832;2022-11-13T00:06:54;32.92;;;5.65;;
38123;SDS011;23934;47.998;9.832;2022-11-13T00:09:20;60.75;;;7.68;;
38123;SDS011;23934;47.998;9.832;2022-11-13T00:11:46;84.57;;;6.88;;
38123;SDS011;23934;47.998;9.832;2022-11-13T00:14:12;38.03;;;6.93;;
38123;SDS011;23934;47.998;9.832;2022-11-13T00:16:38;29.55;;;5.45;;
38123;SDS011;23934;47.998;9.832;2022-11-13T00:19:04;63.15;;;7.30;;
38123;SDS011;23934;47.998;9.832;2022-11-13T00:21:30;39.28;;;6.05;;
38123;SDS011;23934;47.998;9.832;2022-11-13T00:23:56;91.88;;;6.55;;
38123;SDS011;23934;47.998;9.832;2022-11-13T00:26:22;53.47;;;5.97;;
38123;SDS011;23934;47.998;9.832;2022-11-13T00:28:53;19.50;;;5.68;;
38123;SDS011;23934;47.998;9.832;2022-11-13T00:31:19;56.50;;;6.43;;
38123;SDS011;23934;47.998;9.832;2022-11-13T00:33:45;27.02;;;6.25;;
38123;SDS011;23934;47.998;9.832;2022-11-13T00:36:15;30.88;;;6.43;;
38123;SDS011;23934;47.998;9.832;2022-11-13T00:38:41;44.67;;;6.50;;
38123;SDS011;23934;47.998;9.832;2022-11-13T00:41:07;69.03;;;6.80;;
38123;SDS011;23934;47.998;9.832;2022-11-13T00:43:33;68.80;;;7.35;;
38123;SDS011;23934;47.998;9.832;2022-11-13T00:45:59;53.90;;;6.20;;
38123;SDS011;23934;47.998;9.832;2022-11-13T00:48:25;44.67;;;6.35;;
38123;SDS011;23934;47.998;9.832;2022-11-13T00:50:51;43.03;;;6.57;;
38123;SDS011;23934;47.998;9.832;2022-11-13T00:53:17;57.60;;;6.95;;
38123;SDS011;23934;47.998;9.832;2022-11-13T00:55:43;71.90;;;6.65;;
38123;SDS011;23934;47.998;9.832;2022-11-13T00:58:10;105.72;;;7.47;;
38123;SDS011;23934;47.998;9.832;2022-11-13T01:00:36;161.50;;;9.55;;
38123;SDS011;23934;47.998;9.832;2022-11-13T01:03:02;104.45;;;7.47;;
38123;SDS011;23934;47.998;9.832;2022-11-13T01:05:28;49.00;;;6.60;;
38123;SDS011;23934;47.998;9.832;2022-11-13T01:07:54;74.72;;;7.68;;
38123;SDS011;23934;47.998;9.832;2022-11-13T01:10:20;114.30;;;8.40;;
38123;SDS011;23934;47.998;9.832;2022-11-13T01:12:46;50.33;;;7.57;;
38123;SDS011;23934;47.998;9.832;2022-11-13T01:15:12;104.20;;;8.23;;
38123;SDS011;23934;47.998;9.832;2022-11-13T01:17:38;88.65;;;6.75;;
38123;SDS011;23934;47.998;9.832;2022-11-13T01:20:05;99.45;;;8.18;;
38123;SDS011;23934;47.998;9.832;2022-11-13T01:22:31;40.47;;;7.38;;
38123;SDS011;23934;47.998;9.832;2022-11-13T01:24:57;46.45;;;7.50;;
38123;SDS011;23934;47.998;9.832;2022-11-13T01:27:23;139.23;;;9.90;;
38123;SDS011;23934;47.998;9.832;2022-11-13T01:29:49;104.28;;;9.15;;
38123;SDS011;23934;47.998;9.832;2022-11-13T01:32:15;134.45;;;10.27;;
38123;SDS011;23934;47.998;9.832;2022-11-13T01:34:40;80.00;;;8.23;;
38123;SDS011;23934;47.998;9.832;2022-11-13T01:37:06;89.60;;;8.10;;
38123;SDS011;23934;47.998;9.832;2022-11-13T01:39:32;76.18;;;8.15;;
38123;SDS011;23934;47.998;9.832;2022-11-13T01:41:59;52.10;;;6.68;;
38123;SDS011;23934;47.998;9.832;2022-11-13T01:44:29;45.33;;;6.90;;
38123;SDS011;23934;47.998;9.832;2022-11-13T01:47:09;92.53;;;7.82;;
38123;SDS011;23934;47.998;9.832;2022-11-13T01:49:36;47.25;;;7.40;;
38123;SDS011;23934;47.998;9.832;2022-11-13T01:52:03;62.40;;;7.35;;
38123;SDS011;23934;47.998;9.832;2022-11-13T01:54:36;87.68;;;8.15;;
38123;SDS011;23934;47.998;9.832;2022-11-13T01:57:03;35.67;;;6.50;;
38123;SDS011;23934;47.998;9.832;2022-11-13T01:59:39;18.02;;;5.68;;
38123;SDS011;23934;47.998;9.832;2022-11-13T02:02:06;39.50;;;6.90;;
38123;SDS011;23934;47.998;9.832;2022-11-13T02:04:32;25.00;;;6.57;;
38123;SDS011;23934;47.998;9.832;2022-11-13T02:07:12;31.38;;;7.53;;
38123;SDS011;23934;47.998;9.832;2022-11-13T02:09:39;30.35;;;6.43;;
38123;SDS011;23934;47.998;9.832;2022-11-13T02:12:06;19.27;;;6.40;;
38123;SDS011;23934;47.998;9.832;2022-11-13T02:14:32;23.33;;;6.93;;
38123;SDS011;23934;47.998;9.832;2022-11-13T02:17:02;18.40;;;7.32;;
38123;SDS011;23934;47.998;9.832;2022-11-13T02:19:34;45.00;;;8.50;;
38123;SDS011;23934;47.998;9.832;2022-11-13T02:24:46;61.47;;;8.60;;
38123;SDS011;23934;47.998;9.832;2022-11-13T02:27:15;28.95;;;6.05;;
38123;SDS011;23934;47.998;9.832;2022-11-13T02:29:42;38.33;;;7.75;;
38123;SDS011;23934;47.998;9.832;2022-11-13T02:32:08;42.58;;;8.40;;
38123;SDS011;23934;47.998;9.832;2022-11-13T02:34:34;29.00;;;8.05;;
38123;SDS011;23934;47.998;9.832;2022-11-13T02:37:00;45.28;;;7.38;;
38123;SDS011;23934;47.998;9.832;2022-11-13T02:39:26;24.52;;;7.13;;
38123;SDS011;23934;47.998;9.832;2022-11-13T02:41:52;39.05;;;8.35;;
38123;SDS011;23934;47.998;9.832;2022-11-13T02:44:18;23.52;;;7.22;;
38123;SDS011;23934;47.998;9.832;2022-11-13T02:46:44;30.08;;;8.30;;
38123;SDS011;23934;47.998;9.832;2022-11-13T02:49:10;39.65;;;7.05;;
38123;SDS011;23934;47.998;9.832;2022-11-13T02:51:36;21.58;;;8.18;;
38123;SDS011;23934;47.998;9.832;2022-11-13T02:54:02;23.83;;;8.30;;
38123;SDS011;23934;47.998;9.832;2022-11-13T02:56:28;23.10;;;7.72;;
38123;SDS011;23934;47.998;9.832;2022-11-13T02:58:54;21.45;;;7.68;;
38123;SDS011;23934;47.998;9.832;2022-11-13T03:01:20;34.70;;;9.52;;
38123;SDS011;23934;47.998;9.832;2022-11-13T03:03:46;20.02;;;8.60;;
38123;SDS011;23934;47.998;9.832;2022-11-13T03:06:12;21.25;;;7.53;;
38123;SDS011;23934;47.998;9.832;2022-11-13T03:08:38;23.80;;;7.85;;
38123;SDS011;23934;47.998;9.832;2022-11-13T03:11:08;32.10;;;8.52;;
38123;SDS011;23934;47.998;9.832;2022-11-13T03:13:34;19.65;;;7.78;;
38123;SDS011;23934;47.998;9.832;2022-11-13T03:16:07;30.70;;;8.45;;
38123;SDS011;23934;47.998;9.832;2022-11-13T03:18:34;27.17;;;8.57;;
38123;SDS011;23934;47.998;9.832;2022-11-13T03:21:04;16.42;;;6.95;;
38123;SDS011;23934;47.998;9.832;2022-11-13T03:23:30;23.98;;;7.88;;
38123;SDS011;23934;47.998;9.832;2022-11-13T03:25:56;31.25;;;7.05;;
38123;SDS011;23934;47.998;9.832;2022-11-13T03:28:26;26.48;;;8.48;;
38123;SDS011;23934;47.998;9.832;2022-11-13T03:30:52;22.38;;;7.13;;
38123;SDS011;23934;47.998;9.832;2022-11-13T03:33:18;23.63;;;6.75;;
38123;SDS011;23934;47.998;9.832;2022-11-13T03:35:44;24.27;;;7.70;;
38123;SDS011;23934;47.998;9.832;2022-11-13T03:38:10;22.80;;;7.88;;
38123;SDS011;23934;47.998;9.832;2022-11-13T03:40:36;16.98;;;7.55;;
38123;SDS011;23934;47.998;9.832;2022-11-13T03:43:02;18.30;;;7.25;;
38123;SDS011;23934;47.998;9.832;2022-11-13T03:45:28;15.85;;;6.28;;
38123;SDS011;23934;47.998;9.832;2022-11-13T03:47:54;20.50;;;7.20;;
38123;SDS011;23934;47.998;9.832;2022-11-13T03:50:20;19.48;;;6.82;;
38123;SDS011;23934;47.998;9.832;2022-11-13T03:52:46;21.05;;;6.40;;
38123;SDS011;23934;47.998;9.832;2022-11-13T03:55:11;38.78;;;7.72;;
38123;SDS011;23934;47.998;9.832;2022-11-13T03:57:37;19.98;;;7.93;;
38123;SDS011;23934;47.998;9.832;2022-11-13T04:00:04;35.15;;;7.35;;
38123;SDS011;23934;47.998;9.832;2022-11-13T04:02:30;66.40;;;9.98;;
38123;SDS011;23934;47.998;9.832;2022-11-13T04:04:56;33.38;;;8.88;;
38123;SDS011;23934;47.998;9.832;2022-11-13T04:07:22;58.65;;;8.55;;
38123;SDS011;23934;47.998;9.832;2022-11-13T04:09:48;27.42;;;8.18;;
38123;SDS011;23934;47.998;9.832;2022-11-13T04:12:14;32.88;;;7.82;;
38123;SDS011;23934;47.998;9.832;2022-11-13T04:14:40;27.83;;;7.97;;
38123;SDS011;23934;47.998;9.832;2022-11-13T04:17:06;48.50;;;7.82;;
38123;SDS011;23934;47.998;9.832;2022-11-13T04:19:32;37.97;;;9.65;;
38123;SDS011;23934;47.998;9.832;2022-11-13T04:21:58;83.72;;;8.20;;
38123;SDS011;23934;47.998;9.832;2022-11-13T04:24:23;55.08;;;10.35;;
38123;SDS011;23934;47.998;9.832;2022-11-13T04:26:49;22.10;;;7.60;;
38123;SDS011;23934;47.998;9.832;2022-11-13T04:29:15;25.45;;;7.82;;
38123;SDS011;23934;47.998;9.832;2022-11-13T04:31:41;18.17;;;7.32;;
38123;SDS011;23934;47.998;9.832;2022-11-13T04:34:07;24.42;;;6.82;;
38123;SDS011;23934;47.998;9.832;2022-11-13T04:36:33;23.80;;;6.45;;
38123;SDS011;23934;47.998;9.832;2022-11-13T04:38:59;23.02;;;6.93;;
38123;SDS011;23934;47.998;9.832;2022-11-13T04:41:25;30.45;;;7.43;;
38123;SDS011;23934;47.998;9.832;2022-11-13T04:44:10;38.03;;;7.00;;
38123;SDS011;23934;47.998;9.832;2022-11-13T04:46:35;46.42;;;7.72;;
38123;SDS011;23934;47.998;9.832;2022-11-13T04:49:02;64.47;;;7.43;;
38123;SDS011;23934;47.998;9.832;2022-11-13T04:51:28;23.67;;;7.35;;
38123;SDS011;23934;47.998;9.832;2022-11-13T04:53:55;35.90;;;7.43;;
38123;SDS011;23934;47.998;9.832;2022-11-13T04:56:21;29.48;;;7.30;;
38123;SDS011;23934;47.998;9.832;2022-11-13T04:58:47;24.95;;;6.80;;
38123;SDS011;23934;47.998;9.832;2022-11-13T05:01:13;44.25;;;7.18;;
38123;SDS011;23934;47.998;9.832;2022-11-13T05:03:39;16.40;;;6.18;;
38123;SDS011;23934;47.998;9.832;2022-11-13T05:06:05;18.05;;;5.60;;
38123;SDS011;23934;47.998;9.832;2022-11-13T05:08:32;30.98;;;7.97;;
38123;SDS011;23934;47.998;9.832;2022-11-13T05:10:58;17.65;;;6.68;;
38123;SDS011;23934;47.998;9.832;2022-11-13T05:13:24;27.30;;;6.13;;
38123;SDS011;23934;47.998;9.832;2022-11-13T05:15:50;34.63;;;8.27;;
38123;SDS011;23934;47.998;9.832;2022-11-13T05:18:16;17.42;;;6.30;;
38123;SDS011;23934;47.998;9.832;2022-11-13T05:20:42;40.40;;;6.97;;
38123;SDS011;23934;47.998;9.832;2022-11-13T05:23:08;16.08;;;6.55;;
38123;SDS011;23934;47.998;9.832;2022-11-13T05:25:34;59.55;;;8.65;;
38123;SDS011;23934;47.998;9.832;2022-11-13T05:28:00;43.90;;;7.97;;
38123;SDS011;23934;47.998;9.832;2022-11-13T05:30:26;35.58;;;7.45;;
38123;SDS011;23934;47.998;9.832;2022-11-13T05:32:52;23.95;;;7.38;;
38123;SDS011;23934;47.998;9.832;2022-11-13T05:35:18;23.08;;;7.43;;
38123;SDS011;23934;47.998;9.832;2022-11-13T05:37:44;16.00;;;5.88;;
38123;SDS011;23934;47.998;9.832;2022-11-13T05:40:10;15.63;;;5.70;;
38123;SDS011;23934;47.998;9.832;2022-11-13T05:42:36;16.58;;;5.80;;
38123;SDS011;23934;47.998;9.832;2022-11-13T05:45:02;35.75;;;7.40;;
38123;SDS011;23934;47.998;9.832;2022-11-13T05:47:28;35.92;;;6.70;;
38123;SDS011;23934;47.998;9.832;2022-11-13T05:49:54;26.88;;;6.05;;
38123;SDS011;23934;47.998;9.832;2022-11-13T05:52:20;21.60;;;5.85;;
38123;SDS011;23934;47.998;9.832;2022-11-13T05:54:46;24.10;;;6.38;;
38123;SDS011;23934;47.998;9.832;2022-11-13T05:57:12;24.52;;;6.70;;
38123;SDS011;23934;47.998;9.832;2022-11-13T05:59:38;32.63;;;6.15;;
38123;SDS011;23934;47.998;9.832;2022-11-13T06:02:04;17.60;;;6.55;;
38123;SDS011;23934;47.998;9.832;2022-11-13T06:04:30;44.03;;;6.60;;
38123;SDS011;23934;47.998;9.832;2022-11-13T06:06:56;13.05;;;6.18;;
38123;SDS011;23934;47.998;9.832;2022-11-13T06:09:22;19.48;;;5.45;;
38123;SDS011;23934;47.998;9.832;2022-11-13T06:11:48;29.48;;;6.15;;
38123;SDS011;23934;47.998;9.832;2022-11-13T06:14:14;20.27;;;6.85;;
38123;SDS011;23934;47.998;9.832;2022-11-13T06:16:40;14.65;;;5.55;;
38123;SDS011;23934;47.998;9.832;2022-11-13T06:19:07;16.13;;;6.03;;
38123;SDS011;23934;47.998;9.832;2022-11-13T06:21:34;16.20;;;5.97;;
38123;SDS011;23934;47.998;9.832;2022-11-13T06:24:01;32.95;;;6.82;;
38123;SDS011;23934;47.998;9.832;2022-11-13T06:26:36;37.33;;;6.80;;
38123;SDS011;23934;47.998;9.832;2022-11-13T06:29:03;18.33;;;6.88;;
38123;SDS011;23934;47.998;9.832;2022-11-13T06:31:31;49.75;;;6.65;;
38123;SDS011;23934;47.998;9.832;2022-11-13T06:33:57;29.02;;;8.02;;
38123;SDS011;23934;47.998;9.832;2022-11-13T06:36:24;54.35;;;8.45;;
38123;SDS011;23934;47.998;9.832;2022-11-13T06:38:51;26.02;;;7.63;;
38123;SDS011;23934;47.998;9.832;2022-11-13T06:41:18;27.00;;;6.82;;
38123;SDS011;23934;47.998;9.832;2022-11-13T06:43:45;59.03;;;7.07;;
38123;SDS011;23934;47.998;9.832;2022-11-13T06:46:16;31.67;;;6.40;;
38123;SDS011;23934;47.998;9.832;2022-11-13T06:48:42;19.30;;;6.65;;
38123;SDS011;23934;47.998;9.832;2022-11-13T06:51:08;19.45;;;6.45;;
38123;SDS011;23934;47.998;9.832;2022-11-13T06:53:36;40.95;;;6.25;;
38123;SDS011;23934;47.998;9.832;2022-11-13T06:56:03;32.13;;;6.30;;
38123;SDS011;23934;47.998;9.832;2022-11-13T06:58:30;16.92;;;6.55;;
38123;SDS011;23934;47.998;9.832;2022-11-13T07:00:55;34.00;;;7.18;;
38123;SDS011;23934;47.998;9.832;2022-11-13T07:03:22;22.20;;;6.10;;
38123;SDS011;23934;47.998;9.832;2022-11-13T07:05:48;20.40;;;6.80;;
38123;SDS011;23934;47.998;9.832;2022-11-13T07:08:15;40.50;;;6.43;;
38123;SDS011;23934;47.998;9.832;2022-11-13T07:10:41;32.00;;;7.43;;
38123;SDS011;23934;47.998;9.832;2022-11-13T07:13:07;35.75;;;7.72;;
38123;SDS011;23934;47.998;9.832;2022-11-13T07:15:37;34.53;;;7.38;;
38123;SDS011;23934;47.998;9.832;2022-11-13T07:18:03;28.55;;;6.60;;
38123;SDS011;23934;47.998;9.832;2022-11-13T07:20:29;19.83;;;6.38;;
38123;SDS011;23934;47.998;9.832;2022-11-13T07:22:59;17.05;;;6.03;;
38123;SDS011;23934;47.998;9.832;2022-11-13T07:25:25;18.17;;;7.40;;
38123;SDS011;23934;47.998;9.832;2022-11-13T07:27:52;34.20;;;6.90;;
38123;SDS011;23934;47.998;9.832;2022-11-13T07:30:17;30.83;;;7.15;;
38123;SDS011;23934;47.998;9.832;2022-11-13T07:32:43;24.02;;;7.18;;
38123;SDS011;23934;47.998;9.832;2022-11-13T07:35:09;19.10;;;6.43;;
38123;SDS011;23934;47.998;9.832;2022-11-13T07:37:35;20.65;;;7.55;;
38123;SDS011;23934;47.998;9.832;2022-11-13T07:40:02;38.53;;;7.13;;
38123;SDS011;23934;47.998;9.832;2022-11-13T07:42:28;25.15;;;8.13;;
38123;SDS011;23934;47.998;9.832;2022-11-13T07:44:54;13.65;;;6.07;;
38123;SDS011;23934;47.998;9.832;2022-11-13T07:47:21;20.13;;;7.65;;
38123;SDS011;23934;47.998;9.832;2022-11-13T07:49:47;35.35;;;8.38;;
38123;SDS011;23934;47.998;9.832;2022-11-13T07:52:13;20.95;;;7.32;;
38123;SDS011;23934;47.998;9.832;2022-11-13T07:54:39;16.08;;;6.47;;
38123;SDS011;23934;47.998;9.832;2022-11-13T07:57:04;14.15;;;5.82;;
38123;SDS011;23934;47.998;9.832;2022-11-13T07:59:30;29.02;;;7.18;;
38123;SDS011;23934;47.998;9.832;2022-11-13T08:01:56;22.88;;;7.28;;
38123;SDS011;23934;47.998;9.832;2022-11-13T08:04:22;19.15;;;6.55;;
38123;SDS011;23934;47.998;9.832;2022-11-13T08:06:48;19.05;;;6.22;;
38123;SDS011;23934;47.998;9.832;2022-11-13T08:09:14;21.08;;;7.03;;
38123;SDS011;23934;47.998;9.832;2022-11-13T08:11:40;24.33;;;8.05;;
38123;SDS011;23934;47.998;9.832;2022-11-13T08:14:06;20.05;;;7.20;;
38123;SDS011;23934;47.998;9.832;2022-11-13T08:16:32;25.30;;;8.52;;
38123;SDS011;23934;47.998;9.832;2022-11-13T08:18:58;22.00;;;8.13;;
38123;SDS011;23934;47.998;9.832;2022-11-13T08:21:24;22.60;;;8.40;;
38123;SDS011;23934;47.998;9.832;2022-11-13T08:23:50;25.48;;;8.75;;
38123;SDS011;23934;47.998;9.832;2022-11-13T08:26:16;22.38;;;7.55;;
38123;SDS011;23934;47.998;9.832;2022-11-13T08:28:43;22.17;;;8.65;;
38123;SDS011;23934;47.998;9.832;2022-11-13T08:31:13;25.08;;;7.55;;
38123;SDS011;23934;47.998;9.832;2022-11-13T08:33:39;18.10;;;6.72;;
38123;SDS011;23934;47.998;9.832;2022-11-13T08:36:06;19.48;;;7.53;;
38123;SDS011;23934;47.998;9.832;2022-11-13T08:38:32;27.48;;;7.43;;
38123;SDS011;23934;47.998;9.832;2022-11-13T08:40:58;22.70;;;8.35;;
38123;SDS011;23934;47.998;9.832;2022-11-13T08:43:24;21.70;;;6.80;;
38123;SDS011;23934;47.998;9.832;2022-11-13T08:45:51;18.98;;;7.35;;
38123;SDS011;23934;47.998;9.832;2022-11-13T08:48:17;20.17;;;7.85;;
38123;SDS011;23934;47.998;9.832;2022-11-13T08:50:43;21.17;;;7.72;;
38123;SDS011;23934;47.998;9.832;2022-11-13T08:53:09;29.13;;;7.88;;
38123;SDS011;23934;47.998;9.832;2022-11-13T08:55:35;21.40;;;7.90;;
38123;SDS011;23934;47.998;9.832;2022-11-13T08:58:02;20.58;;;8.20;;
38123;SDS011;23934;47.998;9.832;2022-11-13T09:00:29;25.90;;;9.20;;
38123;SDS011;23934;47.998;9.832;2022-11-13T09:02:55;18.25;;;7.78;;
38123;SDS011;23934;47.998;9.832;2022-11-13T09:05:22;17.40;;;6.65;;
38123;SDS011;23934;47.998;9.832;2022-11-13T09:07:48;23.67;;;7.70;;
38123;SDS011;23934;47.998;9.832;2022-11-13T09:10:14;18.10;;;7.38;;
38123;SDS011;23934;47.998;9.832;2022-11-13T09:12:40;18.77;;;7.07;;
38123;SDS011;23934;47.998;9.832;2022-11-13T09:15:06;14.63;;;6.25;;
38123;SDS011;23934;47.998;9.832;2022-11-13T09:17:33;19.15;;;5.13;;
38123;SDS011;23934;47.998;9.832;2022-11-13T09:19:58;11.48;;;5.32;;
38123;SDS011;23934;47.998;9.832;2022-11-13T09:22:24;17.27;;;6.20;;
38123;SDS011;23934;47.998;9.832;2022-11-13T09:24:50;17.00;;;6.78;;
38123;SDS011;23934;47.998;9.832;2022-11-13T09:27:16;16.63;;;5.93;;
38123;SDS011;23934;47.998;9.832;2022-11-13T09:29:42;17.75;;;6.88;;
38123;SDS011;23934;47.998;9.832;2022-11-13T09:32:08;18.45;;;6.50;;
38123;SDS011;23934;47.998;9.832;2022-11-13T09:34:35;13.38;;;5.65;;
38123;SDS011;23934;47.998;9.832;2022-11-13T09:37:01;12.88;;;5.97;;
38123;SDS011;23934;47.998;9.832;2022-11-13T09:39:27;15.85;;;7.18;;
38123;SDS011;23934;47.998;9.832;2022-11-13T09:41:58;13.38;;;5.45;;
38123;SDS011;23934;47.998;9.832;2022-11-13T09:44:30;16.15;;;6.07;;
38123;SDS011;23934;47.998;9.832;2022-11-13T09:47:11;11.25;;;5.10;;
38123;SDS011;23934;47.998;9.832;2022-11-13T09:49:39;14.27;;;5.90;;
38123;SDS011;23934;47.998;9.832;2022-11-13T09:52:14;14.30;;;6.25;;
38123;SDS011;23934;47.998;9.832;2022-11-13T09:54:41;17.48;;;6.32;;
38123;SDS011;23934;47.998;9.832;2022-11-13T09:59:35;13.57;;;5.32;;
38123;SDS011;23934;47.998;9.832;2022-11-13T10:05:20;13.88;;;5.30;;
38123;SDS011;23934;47.998;9.832;2022-11-13T10:10:12;11.98;;;5.47;;
38123;SDS011;23934;47.998;9.832;2022-11-13T10:12:41;13.88;;;5.57;;
38123;SDS011;23934;47.998;9.832;2022-11-13T10:15:09;15.73;;;5.15;;
38123;SDS011;23934;47.998;9.832;2022-11-13T10:17:36;18.70;;;5.70;;
38123;SDS011;23934;47.998;9.832;2022-11-13T10:20:05;12.80;;;5.38;;
38123;SDS011;23934;47.998;9.832;2022-11-13T10:25:11;12.68;;;5.35;;
38123;SDS011;23934;47.998;9.832;2022-11-13T10:27:39;13.95;;;5.85;;
38123;SDS011;23934;47.998;9.832;2022-11-13T10:30:15;11.90;;;5.13;;
38123;SDS011;23934;47.998;9.832;2022-11-13T10:32:42;16.50;;;6.43;;
38123;SDS011;23934;47.998;9.832;2022-11-13T10:35:18;14.73;;;5.80;;
38123;SDS011;23934;47.998;9.832;2022-11-13T10:40:26;10.70;;;4.78;;
38123;SDS011;23934;47.998;9.832;2022-11-13T10:42:52;15.57;;;5.53;;
38123;SDS011;23934;47.998;9.832;2022-11-13T10:45:19;14.65;;;5.45;;
38123;SDS011;23934;47.998;9.832;2022-11-13T10:47:48;13.75;;;5.78;;
38123;SDS011;23934;47.998;9.832;2022-11-13T10:50:18;12.95;;;5.65;;
38123;SDS011;23934;47.998;9.832;2022-11-13T10:52:46;11.77;;;5.40;;
38123;SDS011;23934;47.998;9.832;2022-11-13T10:57:57;14.20;;;5.53;;
38123;SDS011;23934;47.998;9.832;2022-11-13T11:00:31;13.65;;;5.13;;
38123;SDS011;23934;47.998;9.832;2022-11-13T11:02:57;11.18;;;5.05;;
38123;SDS011;23934;47.998;9.832;2022-11-13T11:05:24;15.90;;;6.18;;
38123;SDS011;23934;47.998;9.832;2022-11-13T11:07:51;17.08;;;7.00;;
38123;SDS011;23934;47.998;9.832;2022-11-13T11:12:53;14.65;;;6.15;;
38123;SDS011;23934;47.998;9.832;2022-11-13T11:15:21;17.42;;;6.32;;
38123;SDS011;23934;47.998;9.832;2022-11-13T11:17:49;13.48;;;6.72;;
38123;SDS011;23934;47.998;9.832;2022-11-13T11:20:30;13.38;;;5.57;;
38123;SDS011;23934;47.998;9.832;2022-11-13T11:23:08;15.75;;;6.28;;
38123;SDS011;23934;47.998;9.832;2022-11-13T11:25:40;16.67;;;6.45;;
38123;SDS011;23934;47.998;9.832;2022-11-13T11:30:56;11.27;;;5.88;;
38123;SDS011;23934;47.998;9.832;2022-11-13T11:36:01;14.88;;;6.15;;
38123;SDS011;23934;47.998;9.832;2022-11-13T11:38:36;16.00;;;6.68;;
38123;SDS011;23934;47.998;9.832;2022-11-13T11:41:08;13.25;;;6.22;;
38123;SDS011;23934;47.998;9.832;2022-11-13T11:46:04;12.85;;;5.88;;
38123;SDS011;23934;47.998;9.832;2022-11-13T11:48:30;13.18;;;5.63;;
38123;SDS011;23934;47.998;9.832;2022-11-13T12:01:09;13.07;;;5.75;;
38123;SDS011;23934;47.998;9.832;2022-11-13T12:06:12;15.55;;;6.50;;
38123;SDS011;23934;47.998;9.832;2022-11-13T12:08:50;13.80;;;5.88;;
38123;SDS011;23934;47.998;9.832;2022-11-13T12:16:34;12.90;;;6.00;;
38123;SDS011;23934;47.998;9.832;2022-11-13T12:19:12;15.88;;;6.10;;
38123;SDS011;23934;47.998;9.832;2022-11-13T12:21:55;14.10;;;6.00;;
38123;SDS011;23934;47.998;9.832;2022-11-13T12:24:44;13.50;;;5.40;;
38123;SDS011;23934;47.998;9.832;2022-11-13T12:27:21;15.02;;;6.47;;
38123;SDS011;23934;47.998;9.832;2022-11-13T12:29:52;13.88;;;6.22;;
38123;SDS011;23934;47.998;9.832;2022-11-13T12:32:38;11.75;;;5.75;;
38123;SDS011;23934;47.998;9.832;2022-11-13T12:35:09;14.68;;;6.13;;
38123;SDS011;23934;47.998;9.832;2022-11-13T12:40:05;14.15;;;5.60;;
38123;SDS011;23934;47.998;9.832;2022-11-13T12:45:19;11.55;;;5.47;;
38123;SDS011;23934;47.998;9.832;2022-11-13T12:47:49;13.57;;;5.78;;
38123;SDS011;23934;47.998;9.832;2022-11-13T12:50:24;14.48;;;6.57;;
38123;SDS011;23934;47.998;9.832;2022-11-13T12:53:01;13.05;;;6.18;;
38123;SDS011;23934;47.998;9.832;2022-11-13T12:55:29;14.40;;;6.45;;
38123;SDS011;23934;47.998;9.832;2022-11-13T12:58:02;18.75;;;7.25;;
38123;SDS011;23934;47.998;9.832;2022-11-13T13:00:30;15.38;;;6.13;;
38123;SDS011;23934;47.998;9.832;2022-11-13T13:05:52;15.35;;;6.35;;
38123;SDS011;23934;47.998;9.832;2022-11-13T13:11:14;12.52;;;6.13;;
38123;SDS011;23934;47.998;9.832;2022-11-13T13:16:10;17.13;;;7.38;;
38123;SDS011;23934;47.998;9.832;2022-11-13T13:18:37;15.70;;;6.43;;
38123;SDS011;23934;47.998;9.832;2022-11-13T13:26:05;15.65;;;6.82;;
38123;SDS011;23934;47.998;9.832;2022-11-13T13:28:48;15.00;;;7.30;;
38123;SDS011;23934;47.998;9.832;2022-11-13T13:36:23;16.30;;;6.50;;
38123;SDS011;23934;47.998;9.832;2022-11-13T13:38:54;14.43;;;6.28;;
38123;SDS011;23934;47.998;9.832;2022-11-13T13:41:40;16.95;;;6.20;;
38123;SDS011;23934;47.998;9.832;2022-11-13T13:46:51;13.10;;;6.15;;
38123;SDS011;23934;47.998;9.832;2022-11-13T13:49:18;15.73;;;6.75;;
38123;SDS011;23934;47.998;9.832;2022-11-13T13:51:45;16.25;;;6.70;;
38123;SDS011;23934;47.998;9.832;2022-11-13T13:54:14;16.33;;;6.68;;
38123;SDS011;23934;47.998;9.832;2022-11-13T13:56:42;14.82;;;5.82;;
38123;SDS011;23934;47.998;9.832;2022-11-13T13:59:22;15.27;;;6.20;;
38123;SDS011;23934;47.998;9.832;2022-11-13T14:01:57;18.38;;;7.72;;
38123;SDS011;23934;47.998;9.832;2022-11-13T14:04:25;16.05;;;6.93;;
38123;SDS011;23934;47.998;9.832;2022-11-13T14:06:55;19.35;;;7.45;;
38123;SDS011;23934;47.998;9.832;2022-11-13T14:09:22;12.70;;;5.88;;
38123;SDS011;23934;47.998;9.832;2022-11-13T14:11:59;15.40;;;6.43;;
38123;SDS011;23934;47.998;9.832;2022-11-13T14:14:25;18.00;;;7.07;;
38123;SDS011;23934;47.998;9.832;2022-11-13T14:16:52;21.50;;;7.47;;
38123;SDS011;23934;47.998;9.832;2022-11-13T14:19:18;15.32;;;6.95;;
38123;SDS011;23934;47.998;9.832;2022-11-13T14:21:45;18.10;;;7.95;;
38123;SDS011;23934;47.998;9.832;2022-11-13T14:24:54;16.50;;;7.07;;
38123;SDS011;23934;47.998;9.832;2022-11-13T14:27:01;15.55;;;6.60;;
38123;SDS011;23934;47.998;9.832;2022-11-13T14:29:36;16.85;;;7.55;;
38123;SDS011;23934;47.998;9.832;2022-11-13T14:32:04;19.40;;;7.53;;
38123;SDS011;23934;47.998;9.832;2022-11-13T14:34:31;15.13;;;7.32;;
38123;SDS011;23934;47.998;9.832;2022-11-13T14:37:05;17.67;;;7.75;;
38123;SDS011;23934;47.998;9.832;2022-11-13T14:39:33;18.95;;;7.82;;
38123;SDS011;23934;47.998;9.832;2022-11-13T14:41:59;16.48;;;7.07;;
38123;SDS011;23934;47.998;9.832;2022-11-13T14:44:26;21.13;;;7.45;;
38123;SDS011;23934;47.998;9.832;2022-11-13T14:46:59;20.35;;;7.65;;
38123;SDS011;23934;47.998;9.832;2022-11-13T14:49:26;20.15;;;7.57;;
38123;SDS011;23934;47.998;9.832;2022-11-13T14:51:53;20.65;;;8.18;;
38123;SDS011;23934;47.998;9.832;2022-11-13T14:54:27;17.33;;;7.60;;
38123;SDS011;23934;47.998;9.832;2022-11-13T14:56:53;21.13;;;8.57;;
38123;SDS011;23934;47.998;9.832;2022-11-13T14:59:26;19.20;;;7.82;;
38123;SDS011;23934;47.998;9.832;2022-11-13T15:01:55;15.38;;;7.65;;
38123;SDS011;23934;47.998;9.832;2022-11-13T15:04:21;16.35;;;7.53;;
38123;SDS011;23934;47.998;9.832;2022-11-13T15:06:47;16.45;;;7.85;;
38123;SDS011;23934;47.998;9.832;2022-11-13T15:09:15;19.55;;;8.00;;
38123;SDS011;23934;47.998;9.832;2022-11-13T15:11:42;18.23;;;8.63;;
38123;SDS011;23934;47.998;9.832;2022-11-13T15:14:11;19.95;;;7.47;;
38123;SDS011;23934;47.998;9.832;2022-11-13T15:16:38;21.92;;;8.02;;
38123;SDS011;23934;47.998;9.832;2022-11-13T15:19:06;18.85;;;7.35;;
38123;SDS011;23934;47.998;9.832;2022-11-13T15:21:34;19.60;;;7.78;;
38123;SDS011;23934;47.998;9.832;2022-11-13T15:24:00;32.88;;;11.13;;
38123;SDS011;23934;47.998;9.832;2022-11-13T15:26:26;21.38;;;8.00;;
38123;SDS011;23934;47.998;9.832;2022-11-13T15:28:52;22.05;;;8.55;;
38123;SDS011;23934;47.998;9.832;2022-11-13T15:31:20;22.95;;;8.48;;
38123;SDS011;23934;47.998;9.832;2022-11-13T15:33:46;24.23;;;9.70;;
38123;SDS011;23934;47.998;9.832;2022-11-13T15:36:12;28.10;;;11.98;;
38123;SDS011;23934;47.998;9.832;2022-11-13T15:38:38;22.65;;;8.77;;
38123;SDS011;23934;47.998;9.832;2022-11-13T15:41:12;19.45;;;8.18;;
38123;SDS011;23934;47.998;9.832;2022-11-13T15:43:39;25.02;;;9.00;;
38123;SDS011;23934;47.998;9.832;2022-11-13T15:46:09;23.00;;;8.18;;
38123;SDS011;23934;47.998;9.832;2022-11-13T15:48:37;20.20;;;7.85;;
38123;SDS011;23934;47.998;9.832;2022-11-13T15:51:03;19.77;;;8.57;;